sensor_id;sensor_type;location;lat;lon;timestamp;temperature;humidity
11908;DHT22;6014;47.690;9.130;2023-02-15T00:01:34;0.80;99.90
11908;DHT22;6014;47.690;9.130;2023-02-15T00:04:19;0.80;99.90
11908;DHT22;6014;47.690;9.130;2023-02-15T00:06:57;0.90;99.90
11908;DHT22;6014;47.690;9.130;2023-02-15T00:09:28;1.00;99.90
11908;DHT22;6014;47.690;9.130;2023-02-15T00:12:06;1.10;99.90
11908;DHT22;6014;47.690;9.130;2023-02-15T00:14:39;0.90;99.90
11908;DHT22;6014;47.690;9.130;2023-02-15T00:23:15;1.40;99.90
11908;DHT22;6014;47.690;9.130;2023-02-15T00:42:43;2.30;99.90
11908;DHT22;6014;47.690;9.130;2023-02-15T01:14:33;0.30;99.90
11908;DHT22;6014;47.690;9.130;2023-02-15T01:22:38;0.90;99.90
11908;DHT22;6014;47.690;9.130;2023-02-15T01:25:27;0.90;99.90
11908;DHT22;6014;47.690;9.130;2023-02-15T01:27:55;0.30;99.90
11908;DHT22;6014;47.690;9.130;2023-02-15T01:30:26;0.80;99.90
11908;DHT22;6014;47.690;9.130;2023-02-15T01:32:54;0.90;99.90
11908;DHT22;6014;47.690;9.130;2023-02-15T01:35:22;1.00;99.90
11908;DHT22;6014;47.690;9.130;2023-02-15T01:37:50;1.00;99.90
11908;DHT22;6014;47.690;9.130;2023-02-15T01:40:18;1.00;99.90
11908;DHT22;6014;47.690;9.130;2023-02-15T01:42:50;1.00;99.90
11908;DHT22;6014;47.690;9.130;2023-02-15T01:45:22;0.90;99.90
11908;DHT22;6014;47.690;9.130;2023-02-15T01:47:56;1.00;99.90
11908;DHT22;6014;47.690;9.130;2023-02-15T01:50:29;0.80;99.90
11908;DHT22;6014;47.690;9.130;2023-02-15T01:53:01;0.80;99.90
11908;DHT22;6014;47.690;9.130;2023-02-15T01:55:34;0.90;99.90
11908;DHT22;6014;47.690;9.130;2023-02-15T01:58:04;0.90;99.90
11908;DHT22;6014;47.690;9.130;2023-02-15T02:00:33;0.90;99.90
11908;DHT22;6014;47.690;9.130;2023-02-15T02:03:03;1.30;99.90
11908;DHT22;6014;47.690;9.130;2023-02-15T02:05:34;0.90;99.90
11908;DHT22;6014;47.690;9.130;2023-02-15T02:08:06;0.90;99.90
11908;DHT22;6014;47.690;9.130;2023-02-15T02:10:36;0.90;99.90
11908;DHT22;6014;47.690;9.130;2023-02-15T02:13:05;0.90;99.90
11908;DHT22;6014;47.690;9.130;2023-02-15T02:15:50;0.90;99.90
11908;DHT22;6014;47.690;9.130;2023-02-15T02:18:34;0.80;99.90
11908;DHT22;6014;47.690;9.130;2023-02-15T02:27:34;0.80;99.90
11908;DHT22;6014;47.690;9.130;2023-02-15T02:30:36;0.90;99.90
11908;DHT22;6014;47.690;9.130;2023-02-15T02:33:42;0.80;99.90
11908;DHT22;6014;47.690;9.130;2023-02-15T02:36:20;0.80;99.90
11908;DHT22;6014;47.690;9.130;2023-02-15T02:39:10;0.80;99.90
11908;DHT22;6014;47.690;9.130;2023-02-15T02:41:45;0.80;99.90
11908;DHT22;6014;47.690;9.130;2023-02-15T02:44:20;0.80;99.90
11908;DHT22;6014;47.690;9.130;2023-02-15T02:46:53;0.70;99.90
11908;DHT22;6014;47.690;9.130;2023-02-15T02:49:34;0.70;99.90
11908;DHT22;6014;47.690;9.130;2023-02-15T02:52:34;1.10;99.90
11908;DHT22;6014;47.690;9.130;2023-02-15T02:55:05;0.70;99.90
11908;DHT22;6014;47.690;9.130;2023-02-15T02:57:49;0.80;99.90
11908;DHT22;6014;47.690;9.130;2023-02-15T03:00:19;0.70;99.90
11908;DHT22;6014;47.690;9.130;2023-02-15T03:02:51;0.70;99.90
11908;DHT22;6014;47.690;9.130;2023-02-15T03:05:27;0.60;99.90
11908;DHT22;6014;47.690;9.130;2023-02-15T03:08:02;0.70;99.90
11908;DHT22;6014;47.690;9.130;2023-02-15T03:10:38;0.60;99.90
11908;DHT22;6014;47.690;9.130;2023-02-15T03:13:14;0.60;99.90
11908;DHT22;6014;47.690;9.130;2023-02-15T03:15:44;0.20;99.90
11908;DHT22;6014;47.690;9.130;2023-02-15T03:18:33;0.60;99.90
11908;DHT22;6014;47.690;9.130;2023-02-15T03:21:12;0.70;99.90
11908;DHT22;6014;47.690;9.130;2023-02-15T03:23:53;0.70;99.90
11908;DHT22;6014;47.690;9.130;2023-02-15T03:26:22;0.10;99.90
11908;DHT22;6014;47.690;9.130;2023-02-15T03:28:54;0.60;99.90
11908;DHT22;6014;47.690;9.130;2023-02-15T03:31:26;0.60;99.90
11908;DHT22;6014;47.690;9.130;2023-02-15T03:33:59;0.70;99.90
11908;DHT22;6014;47.690;9.130;2023-02-15T03:36:33;0.60;99.90
11908;DHT22;6014;47.690;9.130;2023-02-15T03:39:13;0.50;99.90
11908;DHT22;6014;47.690;9.130;2023-02-15T03:41:48;0.30;99.90
11908;DHT22;6014;47.690;9.130;2023-02-15T03:44:23;0.20;99.90
11908;DHT22;6014;47.690;9.130;2023-02-15T03:46:59;0.20;99.90
11908;DHT22;6014;47.690;9.130;2023-02-15T03:49:36;0.20;99.90
11908;DHT22;6014;47.690;9.130;2023-02-15T03:52:09;0.20;99.90
11908;DHT22;6014;47.690;9.130;2023-02-15T03:54:39;0.20;99.90
11908;DHT22;6014;47.690;9.130;2023-02-15T03:57:16;0.20;99.90
11908;DHT22;6014;47.690;9.130;2023-02-15T04:00:18;0.20;99.90
11908;DHT22;6014;47.690;9.130;2023-02-15T04:03:23;0.20;99.90
11908;DHT22;6014;47.690;9.130;2023-02-15T04:05:54;0.20;99.90
11908;DHT22;6014;47.690;9.130;2023-02-15T04:08:23;0.30;99.90
11908;DHT22;6014;47.690;9.130;2023-02-15T04:11:11;0.30;99.90
11908;DHT22;6014;47.690;9.130;2023-02-15T04:13:39;0.30;99.90
11908;DHT22;6014;47.690;9.130;2023-02-15T04:16:10;0.30;99.90
11908;DHT22;6014;47.690;9.130;2023-02-15T04:18:39;0.20;99.90
11908;DHT22;6014;47.690;9.130;2023-02-15T04:21:48;0.20;99.90
11908;DHT22;6014;47.690;9.130;2023-02-15T04:24:36;0.20;99.90
11908;DHT22;6014;47.690;9.130;2023-02-15T04:27:22;0.10;99.90
11908;DHT22;6014;47.690;9.130;2023-02-15T04:29:53;0.10;99.90
11908;DHT22;6014;47.690;9.130;2023-02-15T04:32:21;0.20;99.90
11908;DHT22;6014;47.690;9.130;2023-02-15T04:34:49;0.10;99.90
11908;DHT22;6014;47.690;9.130;2023-02-15T04:37:19;0.10;99.90
11908;DHT22;6014;47.690;9.130;2023-02-15T04:39:48;0.10;99.90
11908;DHT22;6014;47.690;9.130;2023-02-15T04:42:17;0.10;99.90
11908;DHT22;6014;47.690;9.130;2023-02-15T04:44:45;0.00;99.90
11908;DHT22;6014;47.690;9.130;2023-02-15T04:47:13;0.00;99.90
11908;DHT22;6014;47.690;9.130;2023-02-15T04:49:41;0.00;99.90
11908;DHT22;6014;47.690;9.130;2023-02-15T04:52:09;0.00;99.90
11908;DHT22;6014;47.690;9.130;2023-02-15T04:54:44;0.00;99.90
11908;DHT22;6014;47.690;9.130;2023-02-15T04:57:14;0.00;99.90
11908;DHT22;6014;47.690;9.130;2023-02-15T04:59:57;0.10;99.90
11908;DHT22;6014;47.690;9.130;2023-02-15T05:02:25;0.10;99.90
11908;DHT22;6014;47.690;9.130;2023-02-15T05:04:55;0.20;99.90
11908;DHT22;6014;47.690;9.130;2023-02-15T05:07:23;0.30;99.90
11908;DHT22;6014;47.690;9.130;2023-02-15T05:09:57;0.30;99.90
11908;DHT22;6014;47.690;9.130;2023-02-15T05:12:27;0.30;99.90
11908;DHT22;6014;47.690;9.130;2023-02-15T05:14:58;0.30;99.90
11908;DHT22;6014;47.690;9.130;2023-02-15T05:17:26;0.40;99.90
11908;DHT22;6014;47.690;9.130;2023-02-15T05:19:54;0.40;99.90
11908;DHT22;6014;47.690;9.130;2023-02-15T05:22:22;0.40;99.90
11908;DHT22;6014;47.690;9.130;2023-02-15T05:24:50;0.40;99.90
11908;DHT22;6014;47.690;9.130;2023-02-15T05:27:36;0.30;99.90
11908;DHT22;6014;47.690;9.130;2023-02-15T05:30:22;0.30;99.90
11908;DHT22;6014;47.690;9.130;2023-02-15T05:32:50;0.30;99.90
11908;DHT22;6014;47.690;9.130;2023-02-15T05:35:18;0.30;99.90
11908;DHT22;6014;47.690;9.130;2023-02-15T05:37:46;0.30;99.90
11908;DHT22;6014;47.690;9.130;2023-02-15T05:40:16;0.40;99.90
11908;DHT22;6014;47.690;9.130;2023-02-15T05:42:46;0.40;99.90
11908;DHT22;6014;47.690;9.130;2023-02-15T05:45:14;0.30;99.90
11908;DHT22;6014;47.690;9.130;2023-02-15T05:47:42;0.30;99.90
11908;DHT22;6014;47.690;9.130;2023-02-15T05:50:10;0.30;99.90
11908;DHT22;6014;47.690;9.130;2023-02-15T05:52:38;0.20;99.90
11908;DHT22;6014;47.690;9.130;2023-02-15T05:55:07;0.20;99.90
11908;DHT22;6014;47.690;9.130;2023-02-15T05:57:36;0.20;99.90
11908;DHT22;6014;47.690;9.130;2023-02-15T06:00:06;0.30;99.90
11908;DHT22;6014;47.690;9.130;2023-02-15T06:02:47;0.20;99.90
11908;DHT22;6014;47.690;9.130;2023-02-15T06:05:15;0.30;99.90
11908;DHT22;6014;47.690;9.130;2023-02-15T06:07:43;0.30;99.90
11908;DHT22;6014;47.690;9.130;2023-02-15T06:10:12;0.30;99.90
11908;DHT22;6014;47.690;9.130;2023-02-15T06:12:40;0.30;99.90
11908;DHT22;6014;47.690;9.130;2023-02-15T06:15:09;0.30;99.90
11908;DHT22;6014;47.690;9.130;2023-02-15T06:17:37;0.30;99.90
11908;DHT22;6014;47.690;9.130;2023-02-15T06:20:06;0.30;99.90
11908;DHT22;6014;47.690;9.130;2023-02-15T06:22:34;0.40;99.90
11908;DHT22;6014;47.690;9.130;2023-02-15T06:25:03;0.40;99.90
11908;DHT22;6014;47.690;9.130;2023-02-15T06:27:32;0.30;99.90
11908;DHT22;6014;47.690;9.130;2023-02-15T06:30:00;0.40;99.90
11908;DHT22;6014;47.690;9.130;2023-02-15T06:32:29;0.40;99.90
11908;DHT22;6014;47.690;9.130;2023-02-15T06:34:57;0.40;99.90
11908;DHT22;6014;47.690;9.130;2023-02-15T06:37:25;0.20;99.90
11908;DHT22;6014;47.690;9.130;2023-02-15T06:39:59;0.30;99.90
11908;DHT22;6014;47.690;9.130;2023-02-15T06:42:29;0.50;99.90
11908;DHT22;6014;47.690;9.130;2023-02-15T06:44:57;0.30;99.90
11908;DHT22;6014;47.690;9.130;2023-02-15T06:47:27;0.30;99.90
11908;DHT22;6014;47.690;9.130;2023-02-15T06:49:56;0.30;99.90
11908;DHT22;6014;47.690;9.130;2023-02-15T06:52:36;0.40;99.90
11908;DHT22;6014;47.690;9.130;2023-02-15T06:55:14;0.50;99.90
11908;DHT22;6014;47.690;9.130;2023-02-15T06:57:44;0.50;99.90
11908;DHT22;6014;47.690;9.130;2023-02-15T07:00:20;0.50;99.90
11908;DHT22;6014;47.690;9.130;2023-02-15T07:02:53;0.60;99.90
11908;DHT22;6014;47.690;9.130;2023-02-15T07:05:33;0.60;99.90
11908;DHT22;6014;47.690;9.130;2023-02-15T07:08:02;0.70;99.90
11908;DHT22;6014;47.690;9.130;2023-02-15T07:10:30;0.60;99.90
11908;DHT22;6014;47.690;9.130;2023-02-15T07:12:58;0.60;99.90
11908;DHT22;6014;47.690;9.130;2023-02-15T07:15:25;0.60;99.90
11908;DHT22;6014;47.690;9.130;2023-02-15T07:17:59;0.60;99.90
11908;DHT22;6014;47.690;9.130;2023-02-15T07:20:42;0.50;99.90
11908;DHT22;6014;47.690;9.130;2023-02-15T07:23:16;0.60;99.90
11908;DHT22;6014;47.690;9.130;2023-02-15T07:25:44;0.60;99.90
11908;DHT22;6014;47.690;9.130;2023-02-15T07:28:12;0.50;99.90
11908;DHT22;6014;47.690;9.130;2023-02-15T07:30:42;0.50;99.90
11908;DHT22;6014;47.690;9.130;2023-02-15T07:33:16;0.50;99.90
11908;DHT22;6014;47.690;9.130;2023-02-15T07:35:53;0.50;99.90
11908;DHT22;6014;47.690;9.130;2023-02-15T07:38:23;0.50;99.90
11908;DHT22;6014;47.690;9.130;2023-02-15T07:40:51;0.50;99.90
11908;DHT22;6014;47.690;9.130;2023-02-15T07:43:26;0.90;99.90
11908;DHT22;6014;47.690;9.130;2023-02-15T07:45:59;0.30;99.90
11908;DHT22;6014;47.690;9.130;2023-02-15T07:48:30;0.70;99.90
11908;DHT22;6014;47.690;9.130;2023-02-15T07:51:19;0.50;99.90
11908;DHT22;6014;47.690;9.130;2023-02-15T07:53:47;0.40;99.90
11908;DHT22;6014;47.690;9.130;2023-02-15T07:56:15;0.60;99.90
11908;DHT22;6014;47.690;9.130;2023-02-15T07:58:45;0.60;99.90
11908;DHT22;6014;47.690;9.130;2023-02-15T08:01:32;0.70;99.90
11908;DHT22;6014;47.690;9.130;2023-02-15T08:04:06;0.70;99.90
11908;DHT22;6014;47.690;9.130;2023-02-15T08:06:57;0.70;99.90
11908;DHT22;6014;47.690;9.130;2023-02-15T08:09:25;0.70;99.90
11908;DHT22;6014;47.690;9.130;2023-02-15T08:11:53;0.70;99.90
11908;DHT22;6014;47.690;9.130;2023-02-15T08:14:21;0.60;99.90
11908;DHT22;6014;47.690;9.130;2023-02-15T08:16:53;0.70;99.90
11908;DHT22;6014;47.690;9.130;2023-02-15T08:19:24;0.60;99.90
11908;DHT22;6014;47.690;9.130;2023-02-15T08:21:54;0.60;99.90
11908;DHT22;6014;47.690;9.130;2023-02-15T08:24:40;0.70;99.90
11908;DHT22;6014;47.690;9.130;2023-02-15T08:27:20;0.70;99.90
11908;DHT22;6014;47.690;9.130;2023-02-15T08:29:54;1.60;99.90
11908;DHT22;6014;47.690;9.130;2023-02-15T08:32:24;0.70;99.90
11908;DHT22;6014;47.690;9.130;2023-02-15T08:34:54;0.90;99.90
11908;DHT22;6014;47.690;9.130;2023-02-15T08:37:23;0.90;99.90
11908;DHT22;6014;47.690;9.130;2023-02-15T08:39:53;1.00;99.90
11908;DHT22;6014;47.690;9.130;2023-02-15T08:42:27;1.00;99.90
11908;DHT22;6014;47.690;9.130;2023-02-15T08:44:57;1.00;99.90
11908;DHT22;6014;47.690;9.130;2023-02-15T08:47:26;1.00;99.90
11908;DHT22;6014;47.690;9.130;2023-02-15T08:50:00;1.10;99.90
11908;DHT22;6014;47.690;9.130;2023-02-15T08:52:31;1.00;99.90
11908;DHT22;6014;47.690;9.130;2023-02-15T08:55:02;1.00;99.90
11908;DHT22;6014;47.690;9.130;2023-02-15T08:57:31;1.10;99.90
11908;DHT22;6014;47.690;9.130;2023-02-15T09:00:10;1.90;99.90
11908;DHT22;6014;47.690;9.130;2023-02-15T09:02:46;1.00;99.90
11908;DHT22;6014;47.690;9.130;2023-02-15T09:05:14;1.00;99.90
11908;DHT22;6014;47.690;9.130;2023-02-15T09:07:46;1.70;99.90
11908;DHT22;6014;47.690;9.130;2023-02-15T09:10:18;1.00;99.90
11908;DHT22;6014;47.690;9.130;2023-02-15T09:13:00;1.10;99.90
11908;DHT22;6014;47.690;9.130;2023-02-15T09:15:29;1.20;99.90
11908;DHT22;6014;47.690;9.130;2023-02-15T09:18:04;1.30;99.90
11908;DHT22;6014;47.690;9.130;2023-02-15T09:20:35;1.20;99.90
11908;DHT22;6014;47.690;9.130;2023-02-15T09:23:10;1.20;99.90
11908;DHT22;6014;47.690;9.130;2023-02-15T09:25:54;1.10;99.90
11908;DHT22;6014;47.690;9.130;2023-02-15T09:28:22;1.00;99.90
11908;DHT22;6014;47.690;9.130;2023-02-15T09:31:10;1.00;99.90
11908;DHT22;6014;47.690;9.130;2023-02-15T09:33:49;0.90;99.90
11908;DHT22;6014;47.690;9.130;2023-02-15T09:36:28;0.90;99.90
11908;DHT22;6014;47.690;9.130;2023-02-15T09:38:58;1.60;99.90
11908;DHT22;6014;47.690;9.130;2023-02-15T09:44:45;1.40;99.90
11908;DHT22;6014;47.690;9.130;2023-02-15T09:47:35;1.60;99.90
11908;DHT22;6014;47.690;9.130;2023-02-15T09:50:25;1.60;99.90
11908;DHT22;6014;47.690;9.130;2023-02-15T09:53:14;1.80;99.90
11908;DHT22;6014;47.690;9.130;2023-02-15T09:55:51;1.50;99.90
11908;DHT22;6014;47.690;9.130;2023-02-15T09:58:32;1.40;99.90
11908;DHT22;6014;47.690;9.130;2023-02-15T10:01:09;1.60;99.90
11908;DHT22;6014;47.690;9.130;2023-02-15T10:03:54;1.70;99.90
11908;DHT22;6014;47.690;9.130;2023-02-15T10:06:57;1.80;99.90
11908;DHT22;6014;47.690;9.130;2023-02-15T10:09:42;1.90;99.90
11908;DHT22;6014;47.690;9.130;2023-02-15T10:15:31;1.90;99.90
11908;DHT22;6014;47.690;9.130;2023-02-15T10:18:26;1.80;99.90
11908;DHT22;6014;47.690;9.130;2023-02-15T10:21:11;2.20;99.90
11908;DHT22;6014;47.690;9.130;2023-02-15T10:24:09;2.10;99.90
11908;DHT22;6014;47.690;9.130;2023-02-15T10:26:48;2.20;99.90
11908;DHT22;6014;47.690;9.130;2023-02-15T10:29:25;2.10;99.90
11908;DHT22;6014;47.690;9.130;2023-02-15T10:32:19;2.00;99.90
11908;DHT22;6014;47.690;9.130;2023-02-15T10:34:52;2.00;99.90
11908;DHT22;6014;47.690;9.130;2023-02-15T10:37:57;1.70;99.90
11908;DHT22;6014;47.690;9.130;2023-02-15T10:40:37;1.70;99.90
11908;DHT22;6014;47.690;9.130;2023-02-15T10:43:27;1.70;99.90
11908;DHT22;6014;47.690;9.130;2023-02-15T10:46:05;1.80;99.90
11908;DHT22;6014;47.690;9.130;2023-02-15T10:51:59;1.90;99.90
11908;DHT22;6014;47.690;9.130;2023-02-15T10:54:36;2.00;99.90
11908;DHT22;6014;47.690;9.130;2023-02-15T10:57:14;2.20;99.90
11908;DHT22;6014;47.690;9.130;2023-02-15T10:59:59;2.30;99.90
11908;DHT22;6014;47.690;9.130;2023-02-15T11:03:00;2.40;99.90
11908;DHT22;6014;47.690;9.130;2023-02-15T11:05:41;2.50;99.90
11908;DHT22;6014;47.690;9.130;2023-02-15T11:08:16;2.40;99.90
11908;DHT22;6014;47.690;9.130;2023-02-15T11:10:49;2.60;99.90
11908;DHT22;6014;47.690;9.130;2023-02-15T11:13:21;3.30;99.90
11908;DHT22;6014;47.690;9.130;2023-02-15T11:15:53;2.50;99.90
11908;DHT22;6014;47.690;9.130;2023-02-15T11:18:32;2.60;99.90
11908;DHT22;6014;47.690;9.130;2023-02-15T11:21:06;2.50;99.90
11908;DHT22;6014;47.690;9.130;2023-02-15T11:23:40;2.40;99.90
11908;DHT22;6014;47.690;9.130;2023-02-15T11:26:13;3.20;99.90
11908;DHT22;6014;47.690;9.130;2023-02-15T11:28:45;3.10;99.90
11908;DHT22;6014;47.690;9.130;2023-02-15T11:31:29;3.20;99.90
11908;DHT22;6014;47.690;9.130;2023-02-15T11:34:12;3.50;99.90
11908;DHT22;6014;47.690;9.130;2023-02-15T11:37:07;3.40;99.90
11908;DHT22;6014;47.690;9.130;2023-02-15T11:39:36;3.00;99.90
11908;DHT22;6014;47.690;9.130;2023-02-15T11:42:14;3.50;99.90
11908;DHT22;6014;47.690;9.130;2023-02-15T11:44:49;3.20;99.90
11908;DHT22;6014;47.690;9.130;2023-02-15T11:47:23;3.30;99.90
11908;DHT22;6014;47.690;9.130;2023-02-15T11:49:56;3.10;99.90
11908;DHT22;6014;47.690;9.130;2023-02-15T11:52:27;2.50;99.90
11908;DHT22;6014;47.690;9.130;2023-02-15T11:54:55;2.80;99.90
11908;DHT22;6014;47.690;9.130;2023-02-15T11:57:31;2.90;99.90
11908;DHT22;6014;47.690;9.130;2023-02-15T12:00:12;3.00;99.90
11908;DHT22;6014;47.690;9.130;2023-02-15T12:02:46;3.20;99.90
11908;DHT22;6014;47.690;9.130;2023-02-15T12:05:19;3.30;99.90
11908;DHT22;6014;47.690;9.130;2023-02-15T12:07:57;3.20;99.90
11908;DHT22;6014;47.690;9.130;2023-02-15T12:10:40;3.20;99.90
11908;DHT22;6014;47.690;9.130;2023-02-15T12:13:17;3.00;99.90
11908;DHT22;6014;47.690;9.130;2023-02-15T12:15:48;3.10;99.90
11908;DHT22;6014;47.690;9.130;2023-02-15T12:18:37;3.10;99.90
11908;DHT22;6014;47.690;9.130;2023-02-15T12:21:13;3.30;99.90
11908;DHT22;6014;47.690;9.130;2023-02-15T12:23:51;3.80;99.90
11908;DHT22;6014;47.690;9.130;2023-02-15T12:26:24;3.90;99.90
11908;DHT22;6014;47.690;9.130;2023-02-15T12:28:55;4.50;99.90
11908;DHT22;6014;47.690;9.130;2023-02-15T12:31:49;3.90;99.90
11908;DHT22;6014;47.690;9.130;2023-02-15T12:34:22;3.90;99.90
11908;DHT22;6014;47.690;9.130;2023-02-15T12:36:53;3.80;99.90
11908;DHT22;6014;47.690;9.130;2023-02-15T12:39:27;4.00;99.90
11908;DHT22;6014;47.690;9.130;2023-02-15T12:42:04;3.80;99.90
11908;DHT22;6014;47.690;9.130;2023-02-15T12:44:35;3.90;99.90
11908;DHT22;6014;47.690;9.130;2023-02-15T12:47:18;4.10;99.90
11908;DHT22;6014;47.690;9.130;2023-02-15T12:50:05;4.00;99.90
11908;DHT22;6014;47.690;9.130;2023-02-15T12:52:46;4.10;99.90
11908;DHT22;6014;47.690;9.130;2023-02-15T12:55:26;4.20;99.90
11908;DHT22;6014;47.690;9.130;2023-02-15T12:58:07;4.70;99.90
11908;DHT22;6014;47.690;9.130;2023-02-15T13:00:36;4.60;99.90
11908;DHT22;6014;47.690;9.130;2023-02-15T13:03:16;4.80;99.90
11908;DHT22;6014;47.690;9.130;2023-02-15T13:05:46;5.30;99.90
11908;DHT22;6014;47.690;9.130;2023-02-15T13:08:18;5.60;99.90
11908;DHT22;6014;47.690;9.130;2023-02-15T13:10:55;5.30;99.90
11908;DHT22;6014;47.690;9.130;2023-02-15T13:13:29;5.60;99.90
11908;DHT22;6014;47.690;9.130;2023-02-15T13:16:00;5.40;99.90
11908;DHT22;6014;47.690;9.130;2023-02-15T13:18:48;5.30;99.90
11908;DHT22;6014;47.690;9.130;2023-02-15T13:21:26;5.40;99.90
11908;DHT22;6014;47.690;9.130;2023-02-15T13:23:58;5.60;99.90
11908;DHT22;6014;47.690;9.130;2023-02-15T13:26:32;5.90;99.90
11908;DHT22;6014;47.690;9.130;2023-02-15T13:29:06;5.70;99.90
11908;DHT22;6014;47.690;9.130;2023-02-15T13:31:41;5.40;99.90
11908;DHT22;6014;47.690;9.130;2023-02-15T13:34:16;5.50;99.90
11908;DHT22;6014;47.690;9.130;2023-02-15T13:37:00;4.90;99.90
11908;DHT22;6014;47.690;9.130;2023-02-15T13:39:41;4.50;99.90
11908;DHT22;6014;47.690;9.130;2023-02-15T13:42:24;4.40;99.90
11908;DHT22;6014;47.690;9.130;2023-02-15T13:45:14;4.20;99.90
11908;DHT22;6014;47.690;9.130;2023-02-15T13:47:54;4.60;99.90
11908;DHT22;6014;47.690;9.130;2023-02-15T13:50:48;4.50;99.90
11908;DHT22;6014;47.690;9.130;2023-02-15T13:53:40;4.60;99.90
11908;DHT22;6014;47.690;9.130;2023-02-15T13:56:16;4.80;99.90
11908;DHT22;6014;47.690;9.130;2023-02-15T13:59:06;4.60;99.90
11908;DHT22;6014;47.690;9.130;2023-02-15T14:01:46;4.90;99.90
11908;DHT22;6014;47.690;9.130;2023-02-15T14:04:46;5.10;99.90
11908;DHT22;6014;47.690;9.130;2023-02-15T14:07:39;5.00;99.90
11908;DHT22;6014;47.690;9.130;2023-02-15T14:10:38;5.20;99.90
11908;DHT22;6014;47.690;9.130;2023-02-15T14:16:23;5.20;99.90
11908;DHT22;6014;47.690;9.130;2023-02-15T14:19:09;5.20;99.90
11908;DHT22;6014;47.690;9.130;2023-02-15T14:21:45;5.30;99.90
11908;DHT22;6014;47.690;9.130;2023-02-15T14:24:24;5.00;99.90
11908;DHT22;6014;47.690;9.130;2023-02-15T14:27:03;4.60;99.90
11908;DHT22;6014;47.690;9.130;2023-02-15T14:29:47;4.30;99.90
11908;DHT22;6014;47.690;9.130;2023-02-15T14:32:25;4.40;99.90
11908;DHT22;6014;47.690;9.130;2023-02-15T14:34:57;4.20;99.90
11908;DHT22;6014;47.690;9.130;2023-02-15T14:37:36;4.30;99.90
11908;DHT22;6014;47.690;9.130;2023-02-15T14:40:24;4.00;99.90
11908;DHT22;6014;47.690;9.130;2023-02-15T14:43:32;3.90;99.90
11908;DHT22;6014;47.690;9.130;2023-02-15T14:46:07;3.80;99.90
11908;DHT22;6014;47.690;9.130;2023-02-15T14:48:43;3.60;99.90
11908;DHT22;6014;47.690;9.130;2023-02-15T14:57:29;3.40;99.90
11908;DHT22;6014;47.690;9.130;2023-02-15T15:00:38;3.40;99.90
11908;DHT22;6014;47.690;9.130;2023-02-15T15:03:26;3.30;99.90
11908;DHT22;6014;47.690;9.130;2023-02-15T15:05:59;3.30;99.90
11908;DHT22;6014;47.690;9.130;2023-02-15T15:08:40;3.20;99.90
11908;DHT22;6014;47.690;9.130;2023-02-15T15:11:38;3.00;99.90
11908;DHT22;6014;47.690;9.130;2023-02-15T15:14:35;3.00;99.90
11908;DHT22;6014;47.690;9.130;2023-02-15T15:17:54;2.90;99.90
11908;DHT22;6014;47.690;9.130;2023-02-15T15:20:42;2.70;99.90
11908;DHT22;6014;47.690;9.130;2023-02-15T15:26:34;2.60;99.90
11908;DHT22;6014;47.690;9.130;2023-02-15T15:29:05;2.70;99.90
11908;DHT22;6014;47.690;9.130;2023-02-15T15:31:51;2.60;99.90
11908;DHT22;6014;47.690;9.130;2023-02-15T15:34:51;2.60;99.90
11908;DHT22;6014;47.690;9.130;2023-02-15T15:37:47;2.50;99.90
11908;DHT22;6014;47.690;9.130;2023-02-15T15:40:42;2.40;99.90
11908;DHT22;6014;47.690;9.130;2023-02-15T15:43:48;2.40;99.90
11908;DHT22;6014;47.690;9.130;2023-02-15T15:49:40;2.20;99.90
11908;DHT22;6014;47.690;9.130;2023-02-15T15:52:13;2.20;99.90
11908;DHT22;6014;47.690;9.130;2023-02-15T15:54:55;2.10;99.90
11908;DHT22;6014;47.690;9.130;2023-02-15T15:57:29;1.80;99.90
11908;DHT22;6014;47.690;9.130;2023-02-15T16:00:30;1.60;99.90
11908;DHT22;6014;47.690;9.130;2023-02-15T16:03:21;1.60;99.90
11908;DHT22;6014;47.690;9.130;2023-02-15T16:05:55;1.50;99.90
11908;DHT22;6014;47.690;9.130;2023-02-15T16:08:29;1.60;99.90
11908;DHT22;6014;47.690;9.130;2023-02-15T16:10:58;1.50;99.90
11908;DHT22;6014;47.690;9.130;2023-02-15T16:13:27;1.50;99.90
11908;DHT22;6014;47.690;9.130;2023-02-15T16:15:57;1.50;99.90
11908;DHT22;6014;47.690;9.130;2023-02-15T16:18:27;1.50;99.90
11908;DHT22;6014;47.690;9.130;2023-02-15T16:20:57;1.50;99.90
11908;DHT22;6014;47.690;9.130;2023-02-15T16:23:58;1.40;99.90
11908;DHT22;6014;47.690;9.130;2023-02-15T16:29:34;1.30;99.90
11908;DHT22;6014;47.690;9.130;2023-02-15T16:32:05;1.30;99.90
11908;DHT22;6014;47.690;9.130;2023-02-15T16:34:34;1.30;99.90
11908;DHT22;6014;47.690;9.130;2023-02-15T16:37:17;1.30;99.90
11908;DHT22;6014;47.690;9.130;2023-02-15T16:39:46;1.90;99.90
11908;DHT22;6014;47.690;9.130;2023-02-15T16:42:23;1.20;99.90
11908;DHT22;6014;47.690;9.130;2023-02-15T16:45:05;1.10;99.90
11908;DHT22;6014;47.690;9.130;2023-02-15T16:47:39;1.20;99.90
11908;DHT22;6014;47.690;9.130;2023-02-15T16:50:17;1.10;99.90
11908;DHT22;6014;47.690;9.130;2023-02-15T16:52:52;1.10;99.90
11908;DHT22;6014;47.690;9.130;2023-02-15T16:55:28;1.00;99.90
11908;DHT22;6014;47.690;9.130;2023-02-15T16:58:01;1.10;99.90
11908;DHT22;6014;47.690;9.130;2023-02-15T17:00:33;1.00;99.90
11908;DHT22;6014;47.690;9.130;2023-02-15T17:03:19;1.10;99.90
11908;DHT22;6014;47.690;9.130;2023-02-15T17:05:57;1.10;99.90
11908;DHT22;6014;47.690;9.130;2023-02-15T17:08:29;1.00;99.90
11908;DHT22;6014;47.690;9.130;2023-02-15T17:11:13;0.90;99.90
11908;DHT22;6014;47.690;9.130;2023-02-15T17:14:12;0.70;99.90
11908;DHT22;6014;47.690;9.130;2023-02-15T17:16:45;0.70;99.90
11908;DHT22;6014;47.690;9.130;2023-02-15T17:19:21;0.70;99.90
11908;DHT22;6014;47.690;9.130;2023-02-15T17:21:52;0.70;99.90
11908;DHT22;6014;47.690;9.130;2023-02-15T17:24:34;0.60;99.90
11908;DHT22;6014;47.690;9.130;2023-02-15T17:27:10;0.60;99.90
11908;DHT22;6014;47.690;9.130;2023-02-15T17:29:47;0.60;99.90
11908;DHT22;6014;47.690;9.130;2023-02-15T17:32:20;0.50;99.90
11908;DHT22;6014;47.690;9.130;2023-02-15T17:35:16;0.50;99.90
11908;DHT22;6014;47.690;9.130;2023-02-15T17:38:05;0.40;99.90
11908;DHT22;6014;47.690;9.130;2023-02-15T17:40:57;0.50;99.90
11908;DHT22;6014;47.690;9.130;2023-02-15T17:43:26;0.40;99.90
11908;DHT22;6014;47.690;9.130;2023-02-15T17:45:54;0.20;99.90
11908;DHT22;6014;47.690;9.130;2023-02-15T17:48:31;0.20;99.90
11908;DHT22;6014;47.690;9.130;2023-02-15T17:51:05;-0.30;99.90
11908;DHT22;6014;47.690;9.130;2023-02-15T17:53:41;0.20;99.90
11908;DHT22;6014;47.690;9.130;2023-02-15T17:56:30;0.40;99.90
11908;DHT22;6014;47.690;9.130;2023-02-15T17:59:06;0.10;99.90
11908;DHT22;6014;47.690;9.130;2023-02-15T18:01:45;0.10;99.90
11908;DHT22;6014;47.690;9.130;2023-02-15T18:04:41;0.40;99.90
11908;DHT22;6014;47.690;9.130;2023-02-15T18:07:28;0.10;99.90
11908;DHT22;6014;47.690;9.130;2023-02-15T18:10:15;0.10;99.90
11908;DHT22;6014;47.690;9.130;2023-02-15T18:13:10;0.10;99.90
11908;DHT22;6014;47.690;9.130;2023-02-15T18:15:39;0.10;99.90
11908;DHT22;6014;47.690;9.130;2023-02-15T18:18:16;0.10;99.90
11908;DHT22;6014;47.690;9.130;2023-02-15T18:20:48;0.10;99.90
11908;DHT22;6014;47.690;9.130;2023-02-15T18:23:28;0.00;99.90
11908;DHT22;6014;47.690;9.130;2023-02-15T18:25:57;0.00;99.90
11908;DHT22;6014;47.690;9.130;2023-02-15T18:28:25;0.00;99.90
11908;DHT22;6014;47.690;9.130;2023-02-15T18:31:01;0.00;99.90
11908;DHT22;6014;47.690;9.130;2023-02-15T18:33:37;0.00;99.90
11908;DHT22;6014;47.690;9.130;2023-02-15T18:36:17;0.00;99.90
11908;DHT22;6014;47.690;9.130;2023-02-15T18:38:57;0.00;99.90